Time;durP1;ratioP1;P1;durP2;ratioP2;P2;SDS_P1;SDS_P2;PMS_P1;PMS_P2;Temp;Humidity;BMP_temperature;BMP_pressure;BME280_temperature;BME280_humidity;BME280_pressure;Samples;Min_cycle;Max_cycle;Signal;HPM_P1;HPM_P2
2024/01/19 00:01:45;;;;;;;5.57;3.92;;;;;;;10.53;89.00;100156.88;5084784;28;20069;-85
2024/01/19 00:04:10;;;;;;;5.47;3.97;;;;;;;10.83;88.66;100205.19;5089758;28;20116;-85
2024/01/19 00:06:39;;;;;;;4.97;3.80;;;;;;;11.00;88.51;100241.63;5088532;28;20032;-85
2024/01/19 00:09:05;;;;;;;5.78;3.90;;;;;;;11.03;89.23;100245.22;5088190;28;20035;-85
2024/01/19 00:11:31;;;;;;;6.15;4.05;;;;;;;10.89;88.95;100223.72;5087263;28;20501;-85
2024/01/19 00:13:57;;;;;;;;;;;;;;;11.27;88.40;100285.50;5077810;28;20138;-85
2024/01/19 00:16:22;;;;;;;4.47;3.38;;;;;;;11.27;88.66;100288.09;5104869;28;20006;-85
2024/01/19 00:18:48;;;;;;;5.18;3.67;;;;;;;11.12;88.63;100254.34;5086488;28;20481;-85
2024/01/19 00:21:14;;;;;;;5.80;3.90;;;;;;;11.02;88.09;100244.31;5098602;28;20032;-85
2024/01/19 00:23:39;;;;;;;5.65;3.85;;;;;;;10.83;87.83;100219.13;5088156;28;20036;-86
2024/01/19 00:26:06;;;;;;;4.80;3.47;;;;;;;10.80;88.21;100208.56;5089980;28;20024;-85
2024/01/19 00:28:32;;;;;;;4.30;3.65;;;;;;;11.00;88.12;100238.16;5086715;28;20762;-85
2024/01/19 00:30:57;;;;;;;5.25;3.60;;;;;;;10.85;88.12;100217.47;5089106;28;20024;-85
2024/01/19 00:33:23;;;;;;;5.13;3.80;;;;;;;10.97;87.85;100240.63;5088969;28;20020;-85
2024/01/19 00:35:49;;;;;;;4.47;3.35;;;;;;;11.11;87.97;100257.81;5088849;28;20028;-85
2024/01/19 00:38:14;;;;;;;5.15;3.83;;;;;;;10.96;88.22;100233.59;5088484;28;20550;-86
2024/01/19 00:40:40;;;;;;;4.45;3.80;;;;;;;11.19;88.09;100274.69;5085970;28;20115;-85
2024/01/19 00:43:06;;;;;;;5.20;3.35;;;;;;;11.16;87.82;100269.34;5087740;28;20028;-86
2024/01/19 00:45:32;;;;;;;5.30;3.60;;;;;;;10.97;87.87;100238.03;5089968;28;20541;-86
2024/01/19 00:47:57;;;;;;;5.70;3.70;;;;;;;11.01;87.99;100250.41;5089964;28;20491;-86
2024/01/19 00:50:23;;;;;;;6.03;3.92;;;;;;;10.93;87.75;100229.16;5094587;28;20486;-86
2024/01/19 00:52:48;;;;;;;4.50;3.63;;;;;;;11.21;87.63;100280.88;5091806;28;20123;-86
2024/01/19 00:55:14;;;;;;;3.80;3.25;;;;;;;11.09;88.03;100256.84;5092063;28;20048;-86
2024/01/19 00:57:40;;;;;;;4.65;3.65;;;;;;;11.36;88.14;100311.13;5090111;28;20067;-86
2024/01/19 01:00:06;;;;;;;4.20;3.33;;;;;;;11.19;87.35;100271.19;5090935;28;20032;-86
2024/01/19 01:02:32;;;;;;;;;;;;;;;11.36;87.47;100308.50;5071230;28;20075;-86
2024/01/19 01:04:58;;;;;;;5.07;3.75;;;;;;;11.06;87.98;100263.66;5090978;28;19951;-86
2024/01/19 01:07:23;;;;;;;;;;;;;;;11.40;87.08;100307.81;5074601;28;20097;-86
2024/01/19 01:09:49;;;;;;;5.18;3.58;;;;;;;11.17;87.79;100280.69;5092389;28;20698;-86
2024/01/19 01:12:15;;;;;;;3.92;3.20;;;;;;;11.36;87.22;100303.28;5092504;28;20024;-86
2024/01/19 01:14:41;;;;;;;4.20;3.15;;;;;;;11.38;87.73;100315.59;5091681;28;20424;-85
2024/01/19 01:17:07;;;;;;;4.35;3.35;;;;;;;11.18;87.88;100282.50;5082778;28;20040;-85
2024/01/19 01:19:33;;;;;;;4.75;3.53;;;;;;;11.30;87.49;100303.94;5070273;28;20040;-86
2024/01/19 01:21:59;;;;;;;4.05;3.40;;;;;;;11.12;87.74;100267.41;5092180;28;20036;-85
2024/01/19 01:24:24;;;;;;;5.43;3.53;;;;;;;11.18;87.47;100269.41;5090707;28;20038;-85
2024/01/19 01:26:50;;;;;;;3.58;3.10;;;;;;;11.38;87.95;100318.19;5087438;28;20036;-85
2024/01/19 01:29:16;;;;;;;4.25;3.35;;;;;;;11.37;87.98;100305.09;5088833;28;20066;-85
2024/01/19 01:31:42;;;;;;;4.65;3.35;;;;;;;11.22;88.25;100273.97;5090620;28;20135;-85
2024/01/19 01:34:08;;;;;;;4.95;3.63;;;;;;;11.39;88.15;100306.94;5089810;28;20047;-85
2024/01/19 01:36:47;;;;;;;5.05;4.07;;;;;;;10.82;88.30;100211.25;5085287;28;20127;-86
2024/01/19 01:39:13;;;;;;;4.53;3.20;;;;;;;11.12;88.41;100253.47;5090699;28;20501;-86
2024/01/19 01:41:41;;;;;;;5.38;3.47;;;;;;;11.16;88.87;100260.63;5105605;28;20032;-86
2024/01/19 01:44:07;;;;;;;5.22;3.58;;;;;;;11.23;88.31;100265.28;5089047;28;20031;-86
2024/01/19 01:46:35;;;;;;;5.78;3.70;;;;;;;11.14;88.91;100257.94;5087579;28;20052;-85
2024/01/19 01:49:01;;;;;;;5.15;3.35;;;;;;;11.16;89.32;100265.84;5083369;28;20074;-86
2024/01/19 01:51:27;;;;;;;4.57;3.25;;;;;;;11.20;88.97;100265.16;5093208;28;20443;-85
2024/01/19 01:53:53;;;;;;;4.05;3.38;;;;;;;11.32;88.84;100283.94;5091640;28;20032;-84
2024/01/19 01:56:19;;;;;;;3.97;3.25;;;;;;;11.34;88.66;100278.81;5092495;28;20097;-85
2024/01/19 01:58:45;;;;;;;5.07;3.10;;;;;;;11.30;88.52;100274.25;5090577;28;20036;-86
2024/01/19 02:01:10;;;;;;;5.22;3.45;;;;;;;11.41;88.09;100299.16;5084897;28;20077;-86
2024/01/19 02:03:37;;;;;;;4.47;3.08;;;;;;;11.14;88.31;100252.72;5106892;28;20043;-86
2024/01/19 02:06:02;;;;;;;4.18;3.03;;;;;;;11.41;88.42;100307.00;5068966;28;20039;-86
2024/01/19 02:08:28;;;;;;;4.85;2.90;;;;;;;11.39;88.02;100301.72;5082959;28;20057;-86
2024/01/19 02:10:54;;;;;;;4.70;3.17;;;;;;;11.40;87.84;100303.47;5072081;28;20063;-86
2024/01/19 02:13:19;;;;;;;3.95;2.88;;;;;;;11.25;87.58;100274.06;5088172;28;20020;-86
2024/01/19 02:15:45;;;;;;;3.47;2.90;;;;;;;11.33;87.05;100279.66;5080777;28;20032;-86
2024/01/19 02:18:12;;;;;;;4.07;3.15;;;;;;;11.28;87.39;100274.22;5081165;28;20118;-84
2024/01/19 02:20:37;;;;;;;3.95;3.17;;;;;;;11.38;87.32;100291.19;5090570;28;20062;-86
2024/01/19 02:23:05;;;;;;;4.38;3.42;;;;;;;11.44;89.12;100325.44;5088894;28;20036;-86
2024/01/19 02:25:31;;;;;;;3.90;2.97;;;;;;;11.47;87.74;100314.19;5091166;28;20512;-87
2024/01/19 02:27:57;;;;;;;3.53;3.03;;;;;;;11.33;87.59;100290.09;5087736;28;20068;-86
2024/01/19 02:30:23;;;;;;;4.03;2.92;;;;;;;11.15;87.41;100256.19;5079291;28;20127;-86
2024/01/19 02:32:48;;;;;;;3.80;3.05;;;;;;;11.28;87.68;100279.44;5083310;28;20115;-87
2024/01/19 02:35:14;;;;;;;3.67;3.00;;;;;;;11.26;88.04;100274.97;5083458;28;20043;-87
2024/01/19 02:37:40;;;;;;;3.70;2.85;;;;;;;11.54;87.43;100331.97;5085805;28;20028;-85
2024/01/19 02:40:06;;;;;;;3.38;2.78;;;;;;;11.40;87.06;100306.09;5087009;28;20116;-86
2024/01/19 02:42:32;;;;;;;3.83;2.90;;;;;;;11.41;87.33;100310.50;5087387;28;20028;-86
2024/01/19 02:44:59;;;;;;;5.07;3.17;;;;;;;11.40;87.28;100315.66;5089017;28;20024;-86
2024/01/19 02:47:27;;;;;;;3.72;2.90;;;;;;;11.51;87.44;100323.97;5089369;28;20055;-86
2024/01/19 02:49:53;;;;;;;3.08;2.55;;;;;;;11.44;87.63;100316.69;5090174;28;20032;-86
2024/01/19 02:52:18;;;;;;;3.90;2.88;;;;;;;11.26;87.96;100281.09;5087116;28;20089;-86
2024/01/19 02:54:44;;;;;;;5.40;2.90;;;;;;;11.26;88.13;100298.47;5088720;28;20048;-86
2024/01/19 02:57:10;;;;;;;3.67;3.00;;;;;;;11.34;87.79;100315.41;5088910;28;20559;-87
2024/01/19 02:59:36;;;;;;;;;;;;;;;11.55;87.98;100350.31;5089644;28;20024;-86
2024/01/19 03:02:02;;;;;;;4.53;3.17;;;;;;;11.42;88.04;100340.16;5087471;28;20392;-86
2024/01/19 03:04:28;;;;;;;3.15;2.85;;;;;;;11.26;86.97;100311.56;5105761;28;20032;-86
2024/01/19 03:06:55;;;;;;;4.68;2.88;;;;;;;11.32;87.28;100320.56;5072015;28;20653;-86
2024/01/19 03:09:20;;;;;;;3.35;2.83;;;;;;;11.64;87.38;100367.22;5088146;28;20031;-86
2024/01/19 03:11:46;;;;;;;3.38;2.65;;;;;;;11.34;87.08;100316.28;5085628;28;20041;-87
2024/01/19 03:14:12;;;;;;;3.75;2.90;;;;;;;11.16;87.56;100292.88;5086660;28;20464;-87
2024/01/19 03:16:44;;;;;;;3.30;2.42;;;;;;;10.97;87.44;100261.53;5082532;28;20039;-87
2024/01/19 03:19:10;;;;;;;4.75;3.05;;;;;;;10.97;87.66;100266.75;5084594;28;20027;-86
2024/01/19 03:21:36;;;;;;;2.67;2.47;;;;;;;11.26;87.31;100312.47;5088072;28;20032;-87
2024/01/19 03:24:02;;;;;;;3.80;2.70;;;;;;;11.15;87.56;100295.41;5089319;28;20031;-86
2024/01/19 03:26:28;;;;;;;3.78;2.65;;;;;;;11.50;88.02;100358.81;5088448;28;20153;-86
2024/01/19 03:28:54;;;;;;;5.88;2.75;;;;;;;11.35;87.20;100322.44;5089965;28;20031;-86
2024/01/19 03:31:19;;;;;;;3.78;2.65;;;;;;;11.31;87.85;100325.72;5089505;28;20020;-86
2024/01/19 03:33:45;;;;;;;4.90;2.83;;;;;;;11.15;88.26;100292.78;5090074;28;20107;-86
2024/01/19 03:36:11;;;;;;;2.75;2.53;;;;;;;11.11;87.84;100286.56;5089930;28;20045;-87
2024/01/19 03:38:42;;;;;;;3.22;2.88;;;;;;;10.93;87.29;100252.66;5088770;28;20031;-86
2024/01/19 03:41:41;;;;;;;4.15;3.03;;;;;;;11.64;87.95;100389.06;5089114;28;20036;-86
2024/01/19 03:44:07;;;;;;;3.80;3.00;;;;;;;11.44;88.72;100356.81;5099485;28;20032;-87
2024/01/19 03:49:51;;;;;;;4.53;3.30;;;;;;;11.61;88.36;100384.56;5087009;28;20042;-86
2024/01/19 03:53:23;;;;;;;4.00;2.58;;;;;;;11.63;88.51;100386.38;5089908;28;20058;-86
2024/01/19 03:56:11;;;;;;;4.63;3.13;;;;;;;11.44;88.31;100359.41;5083875;28;20048;-86
2024/01/19 04:00:05;;;;;;;4.65;3.25;;;;;;;11.57;88.79;100397.44;5088422;28;20043;-86
2024/01/19 04:02:41;;;;;;;6.05;3.80;;;;;;;11.55;89.25;100409.56;5090820;28;20032;-86
2024/01/19 04:05:32;;;;;;;5.15;3.88;;;;;;;11.54;88.89;100394.72;5089175;28;20580;-86
2024/01/19 04:08:02;;;;;;;4.57;3.72;;;;;;;11.18;88.49;100330.41;5065982;28;20140;-86
2024/01/19 04:10:28;;;;;;;6.38;4.10;;;;;;;11.03;88.72;100302.69;5070185;28;20082;-85
2024/01/19 04:12:54;;;;;;;6.70;3.88;;;;;;;11.15;89.19;100332.00;5071652;28;20143;-85
2024/01/19 04:15:20;;;;;;;5.38;3.90;;;;;;;11.52;89.01;100397.25;5084471;28;20139;-85
2024/01/19 04:17:45;;;;;;;7.20;4.55;;;;;;;11.41;88.77;100377.59;5070552;28;20089;-86
2024/01/19 04:20:11;;;;;;;7.63;5.07;;;;;;;11.59;88.63;100401.03;5089077;28;20024;-86
2024/01/19 04:22:37;;;;;;;6.00;4.50;;;;;;;11.52;88.53;100389.41;5085002;28;20039;-87
2024/01/19 04:25:03;;;;;;;5.13;3.85;;;;;;;11.29;87.58;100361.38;5087098;28;20032;-86
2024/01/19 04:27:29;;;;;;;5.50;4.07;;;;;;;11.52;87.53;100404.22;5060725;28;20126;-86
2024/01/19 04:29:54;;;;;;;6.00;3.80;;;;;;;11.37;87.24;100368.72;5087730;28;20027;-86
2024/01/19 04:32:21;;;;;;;5.05;4.03;;;;;;;11.74;86.86;100426.97;5086503;28;20036;-86
2024/01/19 04:34:47;;;;;;;5.65;4.15;;;;;;;11.25;87.42;100351.59;5067810;28;20059;-86
2024/01/19 04:37:14;;;;;;;5.35;4.07;;;;;;;11.38;87.96;100370.50;5089035;28;20413;-87
2024/01/19 04:39:39;;;;;;;5.78;3.90;;;;;;;11.36;87.62;100364.28;5086359;28;20517;-86
2024/01/19 04:42:05;;;;;;;6.03;3.97;;;;;;;11.42;87.87;100381.97;5087242;28;20034;-87
2024/01/19 04:44:37;;;;;;;4.70;3.70;;;;;;;11.63;87.67;100417.75;5085231;28;20480;-87
2024/01/19 04:47:03;;;;;;;6.93;4.75;;;;;;;11.67;87.20;100414.44;5075003;28;20025;-86
2024/01/19 04:49:29;;;;;;;6.35;4.70;;;;;;;11.39;87.65;100366.19;5065464;28;20328;-87
2024/01/19 04:51:57;;;;;;;5.60;4.28;;;;;;;11.58;87.64;100408.00;5088782;28;20143;-87
2024/01/19 04:54:23;;;;;;;5.50;3.85;;;;;;;11.24;87.90;100358.56;5086889;28;20429;-87
2024/01/19 04:56:49;;;;;;;6.47;4.03;;;;;;;11.17;87.40;100348.63;5088763;28;20048;-86
2024/01/19 04:59:17;;;;;;;5.95;4.10;;;;;;;11.06;86.98;100324.63;5067020;28;20028;-86
2024/01/19 05:01:43;;;;;;;5.07;3.80;;;;;;;11.38;86.23;100380.94;5079672;28;20059;-86
2024/01/19 05:04:09;;;;;;;5.57;3.97;;;;;;;11.51;86.74;100399.78;5087101;28;20489;-85
2024/01/19 05:06:35;;;;;;;4.72;3.80;;;;;;;11.28;86.28;100365.72;5089477;28;20039;-85
2024/01/19 05:10:00;;;;;;;;;;;;;;;;;;;;;
2024/01/19 05:12:36;;;;;;;4.63;3.40;;;;;;;11.31;86.58;100384.13;5080069;28;20034;-85
2024/01/19 05:15:05;;;;;;;3.83;3.38;;;;;;;11.65;86.17;100443.16;5083272;28;20020;-85
2024/01/19 05:17:31;;;;;;;4.97;3.45;;;;;;;11.66;86.29;100441.41;5087005;28;20028;-85
2024/01/19 05:19:56;;;;;;;3.88;3.25;;;;;;;11.81;86.38;100466.53;5091620;28;20512;-86
2024/01/19 05:22:22;;;;;;;4.63;3.03;;;;;;;11.52;86.99;100417.28;5086454;28;20036;-84
2024/01/19 05:24:49;;;;;;;5.05;3.58;;;;;;;11.13;87.10;100350.25;5082928;28;20031;-85
2024/01/19 05:27:15;;;;;;;3.90;3.28;;;;;;;11.68;86.96;100451.13;5085303;28;20063;-85
2024/01/19 05:30:00;;;;;;;5.30;3.40;;;;;;;11.41;86.83;100412.47;5082400;28;20067;-85
2024/01/19 05:32:28;;;;;;;4.07;3.22;;;;;;;11.08;86.53;100349.13;5082712;28;20028;-85
2024/01/19 05:35:17;;;;;;;;;;;;;;;;;;;;;
2024/01/19 05:37:43;;;;;;;5.72;3.38;;;;;;;11.80;86.33;100484.78;5091420;28;20026;-84
2024/01/19 05:40:10;;;;;;;3.88;3.22;;;;;;;11.50;86.55;100438.13;5086377;28;20032;-84
2024/01/19 05:42:39;;;;;;;4.13;3.40;;;;;;;11.36;86.34;100413.97;5069207;28;20025;-83
2024/01/19 05:45:10;;;;;;;3.67;2.97;;;;;;;11.19;86.77;100389.69;5085736;28;20627;-84
2024/01/19 05:47:45;;;;;;;4.43;3.45;;;;;;;11.36;86.60;100397.41;5087846;28;20465;-85
2024/01/19 05:50:20;;;;;;;4.00;3.05;;;;;;;11.35;86.71;100400.84;5088966;28;20484;-84
2024/01/19 05:52:56;;;;;;;5.75;3.60;;;;;;;11.27;86.54;100379.59;5087246;28;20114;-85
2024/01/19 05:55:25;;;;;;;4.45;3.28;;;;;;;11.16;86.76;100363.44;5088808;28;20139;-85
2024/01/19 05:57:51;;;;;;;4.25;3.25;;;;;;;11.34;87.12;100397.31;5085729;28;20044;-85
2024/01/19 06:00:17;;;;;;;5.25;3.70;;;;;;;11.18;86.85;100363.50;5086840;28;20563;-84
2024/01/19 06:02:43;;;;;;;4.40;3.25;;;;;;;11.73;86.05;100454.84;5086136;28;20097;-84
2024/01/19 06:05:22;;;;;;;3.63;2.97;;;;;;;11.24;86.74;100381.16;5086989;28;20123;-84
2024/01/19 06:07:48;;;;;;;4.38;3.50;;;;;;;11.40;87.05;100418.50;5104995;27;20489;-86
2024/01/19 06:10:17;;;;;;;4.20;3.33;;;;;;;11.43;87.18;100432.53;5083650;28;20035;-85
2024/01/19 06:12:42;;;;;;;7.32;3.60;;;;;;;11.28;87.15;100407.53;5086076;28;20498;-85
2024/01/19 06:15:08;;;;;;;5.63;3.85;;;;;;;11.82;87.53;100502.34;5088501;28;20036;-85
2024/01/19 06:17:36;;;;;;;4.60;3.53;;;;;;;11.62;87.02;100471.78;5088073;28;20044;-87
2024/01/19 06:20:02;;;;;;;4.40;3.58;;;;;;;11.45;87.06;100446.59;5087010;28;20032;-89
2024/01/19 06:22:28;;;;;;;4.30;3.20;;;;;;;11.57;87.15;100468.06;5089548;28;20519;-86
2024/01/19 06:24:54;;;;;;;5.20;3.65;;;;;;;11.77;86.74;100503.88;5072690;28;20130;-85
2024/01/19 06:27:21;;;;;;;5.05;3.58;;;;;;;11.74;86.84;100497.59;5088853;28;20040;-88
2024/01/19 06:29:47;;;;;;;4.45;3.35;;;;;;;11.68;87.13;100479.00;5072513;28;20063;-87
2024/01/19 06:32:13;;;;;;;4.68;3.38;;;;;;;11.87;86.97;100522.56;5089377;28;20067;-87
2024/01/19 06:34:41;;;;;;;5.32;3.35;;;;;;;11.72;87.11;100497.50;5084756;28;20043;-87
2024/01/19 06:37:07;;;;;;;5.50;3.70;;;;;;;11.51;86.93;100465.16;5086661;28;20477;-88
2024/01/19 06:39:33;;;;;;;7.22;4.68;;;;;;;11.69;87.31;100506.97;5082753;28;20035;-88
2024/01/19 06:41:58;;;;;;;5.43;4.03;;;;;;;11.61;87.36;100486.56;5090529;28;20023;-86
2024/01/19 06:44:24;;;;;;;4.70;3.85;;;;;;;11.31;87.77;100452.09;5082416;28;20024;-85
2024/01/19 06:46:50;;;;;;;4.80;3.45;;;;;;;11.66;87.62;100512.91;5083925;28;20059;-86
2024/01/19 06:49:15;;;;;;;5.63;4.00;;;;;;;11.68;87.70;100519.13;5081097;28;20119;-86
2024/01/19 06:51:41;;;;;;;5.40;3.83;;;;;;;11.54;87.34;100492.34;5089542;28;20040;-85
2024/01/19 06:54:07;;;;;;;5.30;3.85;;;;;;;11.69;87.17;100512.19;5080272;28;20105;-86
2024/01/19 06:56:33;;;;;;;5.25;3.72;;;;;;;11.85;87.31;100540.81;5088509;28;20072;-85
2024/01/19 06:58:59;;;;;;;4.68;3.60;;;;;;;11.88;87.29;100550.53;5091102;28;20115;-86
2024/01/19 07:01:25;;;;;;;5.20;3.85;;;;;;;11.68;87.45;100502.53;5097638;28;20015;-85
2024/01/19 07:03:51;;;;;;;5.55;4.00;;;;;;;11.74;87.10;100514.16;5089220;28;20024;-86
2024/01/19 07:06:17;;;;;;;4.80;3.80;;;;;;;11.59;87.22;100493.44;5090263;28;20035;-87
2024/01/19 07:08:44;;;;;;;5.93;3.70;;;;;;;11.64;87.21;100503.22;5089920;28;20116;-86
2024/01/19 07:11:10;;;;;;;6.15;3.70;;;;;;;11.88;87.04;100537.47;5090589;28;20501;-86
2024/01/19 07:13:36;;;;;;;5.82;4.05;;;;;;;11.70;87.04;100520.09;5090068;28;20081;-86
2024/01/19 07:16:02;;;;;;;5.00;3.63;;;;;;;11.86;87.00;100545.22;5089910;28;20526;-87
2024/01/19 07:18:27;;;;;;;4.97;3.58;;;;;;;11.82;87.28;100535.44;5084677;28;20047;-87
2024/01/19 07:20:53;;;;;;;5.72;4.15;;;;;;;11.65;87.12;100515.50;5088555;28;20447;-88
2024/01/19 07:23:19;;;;;;;6.03;3.85;;;;;;;11.65;87.30;100510.25;5088717;28;20031;-86
2024/01/19 07:25:44;;;;;;;5.53;4.05;;;;;;;11.49;87.30;100485.13;5090612;28;20112;-86
2024/01/19 07:28:10;;;;;;;5.47;3.85;;;;;;;11.70;87.41;100520.09;5091565;28;20103;-85
2024/01/19 07:30:38;;;;;;;5.57;3.85;;;;;;;11.50;87.64;100498.28;5083295;28;20109;-86
2024/01/19 07:33:04;;;;;;;6.47;3.83;;;;;;;11.90;87.48;100555.06;5090299;28;20035;-86
2024/01/19 07:35:29;;;;;;;4.88;3.70;;;;;;;11.72;87.62;100526.28;5091345;28;20024;-86
2024/01/19 07:37:55;;;;;;;5.18;4.10;;;;;;;11.72;87.44;100531.50;5089822;28;20040;-86
2024/01/19 07:40:21;;;;;;;5.78;4.00;;;;;;;11.51;87.73;100505.28;5090673;28;20032;-87
2024/01/19 07:42:47;;;;;;;5.63;3.85;;;;;;;11.50;87.68;100493.03;5090077;28;20028;-87
2024/01/19 07:45:12;;;;;;;5.57;3.90;;;;;;;11.50;86.48;100481.69;5091132;28;20028;-86
2024/01/19 07:47:38;;;;;;;5.30;3.42;;;;;;;11.71;86.62;100510.53;5072447;28;20041;-87
2024/01/19 07:50:04;;;;;;;6.03;3.92;;;;;;;11.74;87.20;100537.72;5090170;28;20024;-87
2024/01/19 07:52:30;;;;;;;;;;;;;;;11.97;85.75;100562.34;5087786;28;20093;-87
2024/01/19 07:54:56;;;;;;;4.72;3.33;;;;;;;11.48;86.32;100480.72;5105431;28;20035;-87
2024/01/19 07:57:22;;;;;;;4.78;3.45;;;;;;;11.74;86.90;100529.88;5088865;28;20044;-88
2024/01/19 07:59:47;;;;;;;4.47;3.45;;;;;;;11.77;86.88;100536.97;5090072;28;20114;-87
2024/01/19 08:02:13;;;;;;;4.15;3.38;;;;;;;11.68;86.43;100516.50;5088790;28;20028;-87
2024/01/19 08:04:39;;;;;;;4.75;3.33;;;;;;;11.44;86.83;100479.69;5071995;28;20031;-85
2024/01/19 08:07:04;;;;;;;4.43;3.67;;;;;;;11.42;87.30;100476.09;5090430;28;20772;-86
2024/01/19 08:09:30;;;;;;;4.28;3.25;;;;;;;11.77;86.94;100526.53;5090700;28;20024;-85
2024/01/19 08:11:56;;;;;;;4.50;3.35;;;;;;;11.53;87.08;100500.13;5089420;28;20405;-85
2024/01/19 08:14:21;;;;;;;4.82;3.28;;;;;;;11.84;86.64;100539.03;5090067;28;20035;-87
2024/01/19 08:16:47;;;;;;;4.35;3.40;;;;;;;11.97;86.76;100567.56;5086947;28;20021;-86
2024/01/19 08:19:13;;;;;;;4.95;3.58;;;;;;;11.50;86.67;100482.59;5071910;28;20035;-86
2024/01/19 08:21:43;;;;;;;5.47;3.92;;;;;;;11.97;86.75;100567.56;5086220;28;20016;-87
2024/01/19 08:24:08;;;;;;;5.13;3.63;;;;;;;11.98;86.33;100574.59;5085468;28;20103;-86
2024/01/19 08:26:34;;;;;;;4.63;3.60;;;;;;;11.57;86.61;100504.66;5086880;28;20099;-86
2024/01/19 08:29:00;;;;;;;4.93;3.75;;;;;;;11.45;87.15;100489.34;5088567;28;20097;-86
2024/01/19 08:31:27;;;;;;;;;;;;;;;11.95;87.69;100579.69;5088995;28;20016;-85
2024/01/19 08:33:53;;;;;;;4.85;3.63;;;;;;;11.73;87.71;100545.50;5088248;28;19976;-84
2024/01/19 08:36:24;;;;;;;5.78;3.92;;;;;;;11.71;87.58;100540.19;5089379;28;20471;-85
2024/01/19 08:38:55;;;;;;;5.40;4.20;;;;;;;11.60;87.72;100521.41;5087913;28;20123;-85
2024/01/19 08:41:24;;;;;;;5.20;3.80;;;;;;;11.65;87.12;100519.00;5076700;28;20371;-85
2024/01/19 08:43:50;;;;;;;5.00;3.72;;;;;;;11.63;87.62;100519.75;5089022;28;20032;-86
2024/01/19 08:46:15;;;;;;;4.85;3.83;;;;;;;11.47;87.38;100500.75;5089954;28;20035;-86
2024/01/19 08:48:45;;;;;;;5.95;4.18;;;;;;;11.90;87.65;100569.88;5088010;28;20046;-87
2024/01/19 08:51:19;;;;;;;5.68;4.18;;;;;;;12.01;87.41;100592.16;5088763;28;20029;-87
2024/01/19 08:53:45;;;;;;;6.28;4.22;;;;;;;11.54;87.27;100517.63;5088915;28;20028;-86
2024/01/19 08:56:10;;;;;;;5.50;4.15;;;;;;;11.72;87.67;100549.81;5088809;28;20048;-87
2024/01/19 08:58:37;;;;;;;5.97;4.35;;;;;;;11.89;87.57;100581.13;5058218;28;20063;-86
2024/01/19 09:01:03;;;;;;;6.47;4.10;;;;;;;11.92;87.65;100583.91;5082677;28;20060;-87
2024/01/19 09:03:29;;;;;;;;;;;;;;;12.03;87.73;100595.75;5078887;28;20074;-88
2024/01/19 09:05:54;;;;;;;6.60;4.30;;;;;;;11.70;87.67;100546.25;5082276;28;19959;-87
2024/01/19 09:08:20;;;;;;;6.03;4.07;;;;;;;11.73;87.67;100550.75;5083927;28;20036;-88
2024/01/19 09:10:46;;;;;;;5.20;3.97;;;;;;;11.78;87.52;100551.84;5067304;28;20050;-87
2024/01/19 09:13:11;;;;;;;6.35;4.45;;;;;;;11.88;87.49;100563.63;5091303;28;20032;-88
2024/01/19 09:15:38;;;;;;;6.20;4.10;;;;;;;11.99;87.57;100578.13;5090567;28;20036;-88
2024/01/19 09:18:04;;;;;;;5.22;3.92;;;;;;;12.08;87.38;100585.47;5092618;28;20382;-87
2024/01/19 09:20:30;;;;;;;5.22;3.88;;;;;;;11.92;87.15;100552.50;5091760;28;20559;-88
2024/01/19 09:22:56;;;;;;;5.25;4.03;;;;;;;11.88;87.15;100537.47;5089832;28;20481;-88
2024/01/19 09:25:21;;;;;;;5.88;4.40;;;;;;;12.11;87.14;100568.19;5091421;28;20119;-88
2024/01/19 09:27:47;;;;;;;5.30;3.90;;;;;;;12.07;87.05;100555.81;5085728;28;20028;-87
2024/01/19 09:30:13;;;;;;;5.32;4.05;;;;;;;11.95;86.79;100531.69;5092824;28;20504;-87
2024/01/19 09:32:40;;;;;;;5.15;4.00;;;;;;;12.07;87.05;100553.19;5090822;28;20115;-86
2024/01/19 09:35:06;;;;;;;4.35;3.28;;;;;;;12.10;86.68;100555.94;5089473;28;20024;-86
2024/01/19 09:37:31;;;;;;;4.68;3.72;;;;;;;11.92;86.89;100521.09;5092074;28;20038;-87
2024/01/19 09:39:57;;;;;;;4.78;3.67;;;;;;;11.90;87.01;100525.38;5091335;28;20044;-87
2024/01/19 09:42:26;;;;;;;4.22;3.30;;;;;;;11.87;87.17;100504.25;5092079;28;20103;-87
2024/01/19 09:45:07;;;;;;;4.78;3.63;;;;;;;12.15;87.22;100559.66;5093494;28;20028;-86
2024/01/19 09:47:48;;;;;;;6.50;3.75;;;;;;;12.17;87.33;100564.94;5091152;28;20598;-87
2024/01/19 09:50:18;;;;;;;4.85;3.65;;;;;;;12.08;87.32;100554.97;5092059;28;20032;-87
2024/01/19 09:53:00;;;;;;;4.57;3.17;;;;;;;12.13;87.34;100552.56;5093309;28;20111;-86
2024/01/19 09:55:27;;;;;;;4.82;3.50;;;;;;;11.94;87.20;100514.22;5091973;28;20047;-85
2024/01/19 09:57:54;;;;;;;4.47;3.40;;;;;;;12.09;87.39;100541.06;5077596;28;20040;-86
2024/01/19 10:00:20;;;;;;;5.05;3.63;;;;;;;12.10;87.16;100532.38;5093943;28;20467;-85
2024/01/19 10:02:50;;;;;;;4.57;3.58;;;;;;;12.24;86.84;100553.94;5093762;28;20485;-85
2024/01/19 10:05:17;;;;;;;4.13;3.25;;;;;;;12.05;86.99;100522.53;5096175;28;20061;-87
2024/01/19 10:07:48;;;;;;;4.97;3.65;;;;;;;12.22;86.96;100552.97;5092159;28;20110;-85
2024/01/19 10:10:15;;;;;;;5.82;3.72;;;;;;;12.25;87.16;100557.44;5092388;28;20020;-86
2024/01/19 10:12:41;;;;;;;4.28;3.33;;;;;;;12.02;87.11;100518.97;5090965;28;20042;-85
2024/01/19 10:15:15;;;;;;;4.80;3.72;;;;;;;12.25;87.29;100547.84;5091747;28;20030;-86
2024/01/19 10:17:42;;;;;;;4.32;3.63;;;;;;;12.20;86.70;100539.81;5090022;28;20036;-86
2024/01/19 10:20:12;;;;;;;5.13;3.63;;;;;;;12.27;87.31;100545.31;5090977;28;20093;-85
2024/01/19 10:22:39;;;;;;;3.70;3.28;;;;;;;11.82;86.87;100470.06;5091331;28;20028;-86
2024/01/19 10:25:11;;;;;;;4.40;3.38;;;;;;;11.89;87.00;100487.84;5089408;28;20020;-85
2024/01/19 10:27:52;;;;;;;3.95;3.22;;;;;;;12.30;87.15;100553.31;5091270;28;20115;-86
2024/01/19 10:30:23;;;;;;;4.57;3.33;;;;;;;12.06;87.03;100517.34;5091228;28;20027;-86
2024/01/19 10:32:50;;;;;;;3.95;3.42;;;;;;;12.11;86.93;100528.06;5090860;28;20020;-86
2024/01/19 10:35:18;;;;;;;4.40;3.50;;;;;;;12.11;87.02;100522.81;5090572;28;20047;-85
2024/01/19 10:37:44;;;;;;;4.50;3.38;;;;;;;11.98;87.11;100495.19;5090944;28;20520;-86
2024/01/19 10:40:23;;;;;;;3.88;3.08;;;;;;;12.31;86.84;100542.00;5088373;28;20032;-85
2024/01/19 10:42:53;;;;;;;4.28;3.20;;;;;;;12.19;87.07;100524.94;5090918;28;20024;-85
2024/01/19 10:45:30;;;;;;;5.10;3.63;;;;;;;12.29;87.03;100544.53;5090480;28;20157;-85
2024/01/19 10:47:58;;;;;;;5.25;3.83;;;;;;;12.27;87.11;100535.72;5090178;28;20085;-86
2024/01/19 10:50:26;;;;;;;4.53;3.30;;;;;;;11.98;86.95;100487.34;5089493;28;20430;-85
2024/01/19 10:52:53;;;;;;;4.85;3.72;;;;;;;12.07;86.81;100487.75;5091800;28;20036;-85
2024/01/19 10:55:23;;;;;;;5.07;3.58;;;;;;;11.99;86.55;100476.06;5090279;28;20088;-86
2024/01/19 10:57:55;;;;;;;5.90;4.03;;;;;;;12.22;86.60;100522.44;5089389;28;20181;-85
2024/01/19 11:00:28;;;;;;;5.50;4.03;;;;;;;12.32;86.59;100536.84;5090379;28;20032;-86
2024/01/19 11:02:55;;;;;;;7.63;4.63;;;;;;;12.37;86.72;100542.25;5089372;28;20035;-85
2024/01/19 11:05:21;;;;;;;6.90;4.40;;;;;;;12.22;86.37;100514.59;5091312;28;20500;-86
2024/01/19 11:07:58;;;;;;;5.63;4.13;;;;;;;12.17;86.50;100505.66;5091745;28;20032;-84
2024/01/19 11:10:25;;;;;;;10.32;5.07;;;;;;;12.31;86.65;100521.94;5078982;28;20490;-85
2024/01/19 11:12:59;;;;;;;7.43;5.07;;;;;;;12.36;86.73;100522.13;5091300;28;20059;-85
2024/01/19 11:15:53;;;;;;;6.75;4.30;;;;;;;12.39;86.65;100515.31;5081637;28;20415;-85
2024/01/19 11:18:22;;;;;;;8.00;5.07;;;;;;;12.38;86.59;100515.22;5088220;28;20482;-84
2024/01/19 11:20:48;;;;;;;7.38;4.70;;;;;;;12.28;86.89;100490.41;5093749;28;20463;-84
2024/01/19 11:23:14;;;;;;;6.75;4.50;;;;;;;12.33;86.75;100482.72;5077109;28;20020;-84
2024/01/19 11:26:00;;;;;;;7.75;4.88;;;;;;;12.27;86.55;100472.88;5084469;28;20132;-85
2024/01/19 11:28:49;;;;;;;8.43;5.68;;;;;;;12.19;86.88;100458.56;5084693;28;20036;-87
2024/01/19 11:31:18;;;;;;;8.95;5.45;;;;;;;12.36;86.75;100486.38;5084992;28;20488;-87
2024/01/19 11:33:44;;;;;;;6.90;4.80;;;;;;;12.40;87.41;100509.25;5085185;28;20032;-87
2024/01/19 11:36:10;;;;;;;6.75;4.68;;;;;;;12.27;86.71;100466.75;5083764;28;20036;-86
2024/01/19 11:38:38;;;;;;;7.82;5.35;;;;;;;12.44;86.85;100497.16;5086972;28;20526;-86